createdAt,value
2019-05-14T00:00:21.766Z,16.82
2019-05-14T00:03:02.309Z,16.93
2019-05-14T00:05:39.191Z,16.97
2019-05-14T00:08:17.457Z,16.96
2019-05-14T00:10:49.312Z,16.92
2019-05-14T00:13:21.427Z,16.90
2019-05-14T00:15:54.417Z,16.34
2019-05-14T00:18:26.953Z,16.64
2019-05-14T00:20:57.559Z,16.54
2019-05-14T00:23:31.693Z,16.66
2019-05-14T00:26:03.215Z,16.53
2019-05-14T00:28:35.181Z,16.49
2019-05-14T00:31:09.254Z,16.49
2019-05-14T00:33:44.342Z,16.61
2019-05-14T00:36:16.302Z,16.56
2019-05-14T00:38:47.678Z,16.57
2019-05-14T00:41:22.588Z,16.55
2019-05-14T00:43:54.090Z,16.43
2019-05-14T00:46:25.114Z,16.59
2019-05-14T00:48:55.746Z,16.56
2019-05-14T00:51:26.324Z,16.39
2019-05-14T00:54:01.664Z,16.47
2019-05-14T00:56:33.985Z,16.52
2019-05-14T00:59:07.457Z,16.29
2019-05-14T01:01:45.802Z,16.35
2019-05-14T01:04:18.530Z,16.42
2019-05-14T01:06:51.505Z,16.33
2019-05-14T01:09:23.127Z,16.27
2019-05-14T01:11:53.642Z,16.20
2019-05-14T01:14:26.211Z,16.28
2019-05-14T01:16:57.844Z,16.27
2019-05-14T01:19:28.434Z,16.28
2019-05-14T01:22:01.829Z,16.12
2019-05-14T01:24:34.702Z,16.13
2019-05-14T01:27:08.016Z,16.16
2019-05-14T01:29:42.669Z,16.01
2019-05-14T01:32:13.165Z,16.14
2019-05-14T01:34:48.164Z,16.17
2019-05-14T01:37:22.794Z,16.18
2019-05-14T01:39:55.404Z,16.19
2019-05-14T01:42:28.141Z,16.05
2019-05-14T01:45:02.556Z,15.97
2019-05-14T01:47:34.052Z,15.99
2019-05-14T01:50:04.444Z,15.89
2019-05-14T01:52:35.407Z,15.89
2019-05-14T01:55:08.664Z,15.95
2019-05-14T01:57:42.290Z,15.78
2019-05-14T02:00:17.947Z,15.79
2019-05-14T02:02:52.423Z,15.72
2019-05-14T02:05:25.997Z,15.83
2019-05-14T02:08:01.770Z,15.76
2019-05-14T02:10:34.779Z,15.79
2019-05-14T02:13:08.662Z,15.55
2019-05-14T02:15:42.959Z,15.74
2019-05-14T02:18:17.166Z,15.59
2019-05-14T02:20:47.454Z,15.65
2019-05-14T02:23:18.841Z,15.62
2019-05-14T02:25:55.524Z,15.38
2019-05-14T02:28:26.438Z,15.29
2019-05-14T02:31:03.534Z,15.44
2019-05-14T02:33:32.866Z,15.37
2019-05-14T02:36:04.441Z,15.38
2019-05-14T02:38:38.742Z,15.35
2019-05-14T02:41:09.897Z,15.30
2019-05-14T02:43:41.937Z,15.28
2019-05-14T02:46:18.674Z,15.08
2019-05-14T02:48:51.912Z,15.01
2019-05-14T02:51:22.972Z,14.94
2019-05-14T02:54:04.396Z,15.07
2019-05-14T02:56:40.240Z,14.99
2019-05-14T02:59:11.070Z,14.92
2019-05-14T03:01:44.087Z,14.84
2019-05-14T03:04:15.947Z,14.82
2019-05-14T03:06:49.633Z,14.75
2019-05-14T03:09:24.022Z,14.76
2019-05-14T03:11:54.896Z,14.80
2019-05-14T03:14:25.931Z,14.76
2019-05-14T03:17:01.411Z,14.75
2019-05-14T03:19:32.069Z,14.58
2019-05-14T03:22:02.560Z,14.72
2019-05-14T03:24:35.920Z,14.41
2019-05-14T03:27:09.349Z,14.58
2019-05-14T03:29:41.888Z,14.57
2019-05-14T03:32:22.146Z,14.61
2019-05-14T03:34:53.836Z,14.54
2019-05-14T03:37:30.893Z,14.58
2019-05-14T03:40:01.274Z,14.48
2019-05-14T03:42:36.024Z,14.50
2019-05-14T03:45:08.580Z,14.62
2019-05-14T03:47:43.928Z,14.34
2019-05-14T03:50:14.584Z,14.47
2019-05-14T03:52:50.211Z,14.54
2019-05-14T03:55:21.396Z,14.68
2019-05-14T03:57:52.385Z,14.62
2019-05-14T04:00:49.982Z,14.64
2019-05-14T04:03:23.586Z,14.61
2019-05-14T04:06:04.353Z,14.50
2019-05-14T04:08:49.754Z,14.49
2019-05-14T04:11:24.734Z,14.54
2019-05-14T04:14:00.181Z,14.53
2019-05-14T04:16:39.631Z,14.55
2019-05-14T04:19:14.180Z,14.58
2019-05-14T04:21:49.872Z,14.55
2019-05-14T04:24:29.681Z,14.45
2019-05-14T04:27:12.812Z,14.52
2019-05-14T04:29:45.184Z,14.42
2019-05-14T04:32:19.991Z,14.62
2019-05-14T04:34:53.522Z,14.64
2019-05-14T04:37:24.477Z,14.53
2019-05-14T04:39:59.368Z,14.65
2019-05-14T04:42:32.874Z,14.55
2019-05-14T04:45:05.751Z,14.65
2019-05-14T04:47:42.193Z,14.54
2019-05-14T04:50:20.073Z,14.52
2019-05-14T04:52:59.908Z,14.26
2019-05-14T04:55:35.309Z,14.25
2019-05-14T04:58:10.202Z,14.37
2019-05-14T05:00:44.790Z,14.48
2019-05-14T05:03:15.503Z,14.53
2019-05-14T05:05:49.946Z,14.39
2019-05-14T05:08:21.825Z,14.42
2019-05-14T05:10:55.279Z,14.21
2019-05-14T05:13:41.093Z,14.24
2019-05-14T05:16:15.104Z,14.10
2019-05-14T05:18:49.102Z,14.25
2019-05-14T05:21:24.823Z,14.40
2019-05-14T05:23:55.753Z,14.48
2019-05-14T05:26:28.720Z,14.08
2019-05-14T05:29:06.518Z,14.14
2019-05-14T05:31:35.118Z,14.24
2019-05-14T05:34:09.708Z,14.37
2019-05-14T05:36:43.392Z,14.25
2019-05-14T05:39:22.986Z,14.10
2019-05-14T05:41:58.344Z,14.26
2019-05-14T05:44:31.162Z,14.33
2019-05-14T05:47:04.950Z,13.86
2019-05-14T05:49:38.406Z,14.16
2019-05-14T05:52:14.578Z,13.89
2019-05-14T05:54:45.574Z,14.03
2019-05-14T05:57:20.094Z,14.03
2019-05-14T05:59:51.141Z,13.73
2019-05-14T06:02:23.250Z,14.02
2019-05-14T06:04:55.566Z,13.96
2019-05-14T06:07:28.835Z,14.01
2019-05-14T06:10:09.698Z,14.07
2019-05-14T06:12:49.105Z,14.15
2019-05-14T06:15:24.363Z,14.34
2019-05-14T06:18:10.406Z,14.36
2019-05-14T06:20:28.223Z,14.31
2019-05-14T06:23:00.500Z,14.07
2019-05-14T06:25:31.539Z,14.47
2019-05-14T06:28:02.321Z,14.55
2019-05-14T06:30:43.000Z,14.54
2019-05-14T06:33:19.633Z,14.59
2019-05-14T06:36:01.010Z,14.84
2019-05-14T06:38:38.834Z,14.89
2019-05-14T06:41:11.674Z,14.73
2019-05-14T06:43:48.683Z,14.84
2019-05-14T06:46:20.509Z,14.70
2019-05-14T06:48:50.746Z,14.85
2019-05-14T06:51:21.197Z,14.82
2019-05-14T06:53:58.917Z,14.93
2019-05-14T06:56:32.037Z,15.16
2019-05-14T06:59:09.043Z,15.06
2019-05-14T07:01:44.480Z,15.11
2019-05-14T07:04:18.250Z,15.07
2019-05-14T07:06:52.775Z,14.92
2019-05-14T07:09:24.399Z,15.07
2019-05-14T07:11:58.471Z,15.27
2019-05-14T07:14:32.415Z,15.27
2019-05-14T07:17:04.971Z,15.35
2019-05-14T07:19:38.575Z,15.26
2019-05-14T07:22:12.173Z,15.43
2019-05-14T07:24:45.733Z,15.57
2019-05-14T07:27:22.415Z,15.80
2019-05-14T07:29:53.807Z,16.00
2019-05-14T07:32:29.741Z,15.98
2019-05-14T07:35:04.751Z,16.11
2019-05-14T07:37:39.616Z,15.38
2019-05-14T07:40:13.933Z,16.09
2019-05-14T07:42:44.551Z,16.03
2019-05-14T07:45:19.401Z,16.32
2019-05-14T07:47:54.455Z,16.22
2019-05-14T07:50:25.603Z,16.48
2019-05-14T07:52:58.561Z,16.56
2019-05-14T07:55:41.530Z,16.46
2019-05-14T08:01:11.162Z,16.37
2019-05-14T08:03:42.386Z,16.55
2019-05-14T08:06:14.241Z,15.80
2019-05-14T08:08:49.221Z,16.49
2019-05-14T08:11:28.520Z,16.43
2019-05-14T08:14:03.555Z,16.92
2019-05-14T08:16:38.141Z,17.02
2019-05-14T08:19:24.341Z,17.12
2019-05-14T08:21:47.982Z,17.33
2019-05-14T08:24:20.209Z,17.30
2019-05-14T08:26:54.418Z,17.34
2019-05-14T08:29:28.539Z,17.45
2019-05-14T08:32:01.553Z,17.24
2019-05-14T08:34:35.739Z,17.27
2019-05-14T08:37:10.282Z,17.27
2019-05-14T08:39:43.578Z,16.73
2019-05-14T08:42:18.579Z,17.75
2019-05-14T08:44:51.714Z,17.19
2019-05-14T08:47:22.238Z,17.57
2019-05-14T08:49:53.998Z,18.05
2019-05-14T08:52:28.580Z,18.04
2019-05-14T08:55:09.106Z,18.10
2019-05-14T08:57:31.855Z,18.38
2019-05-14T09:03:03.265Z,18.50
2019-05-14T09:05:34.621Z,18.41
2019-05-14T09:08:04.903Z,18.60
2019-05-14T09:10:35.099Z,18.54
2019-05-14T09:13:10.677Z,18.63
2019-05-14T09:15:54.908Z,17.78
2019-05-14T09:18:34.007Z,17.66
2019-05-14T09:21:49.567Z,18.44
2019-05-14T09:24:25.867Z,18.95
2019-05-14T09:26:59.302Z,18.93
2019-05-14T09:29:30.230Z,19.33
2019-05-14T09:32:00.395Z,19.39
2019-05-14T09:34:33.269Z,19.83
2019-05-14T09:37:04.834Z,20.14
2019-05-14T09:39:38.712Z,19.87
2019-05-14T09:45:48.166Z,20.41
2019-05-14T09:48:42.091Z,20.43
2019-05-14T09:51:13.909Z,20.18
2019-05-14T09:53:45.357Z,20.26
2019-05-14T09:56:18.641Z,20.37
2019-05-14T09:58:51.840Z,20.26
2019-05-14T10:01:27.264Z,19.98
2019-05-14T10:03:59.525Z,20.34
2019-05-14T10:06:30.157Z,20.55
2019-05-14T10:09:01.940Z,20.54
2019-05-14T10:12:28.624Z,21.00
2019-05-14T10:15:02.397Z,21.16
2019-05-14T10:17:34.576Z,21.23
2019-05-14T10:20:08.581Z,21.40
2019-05-14T10:22:40.154Z,21.46
2019-05-14T10:25:10.825Z,21.58
2019-05-14T10:27:41.077Z,21.85
2019-05-14T10:30:12.848Z,21.64
2019-05-14T10:32:44.106Z,22.13
2019-05-14T10:35:19.151Z,22.48
2019-05-14T10:37:53.946Z,22.23
2019-05-14T10:40:23.626Z,22.26
2019-05-14T10:42:57.949Z,22.59
2019-05-14T10:45:32.412Z,22.92
2019-05-14T10:48:03.627Z,23.18
2019-05-14T10:50:52.253Z,23.45
2019-05-14T10:53:10.447Z,23.64
2019-05-14T10:55:42.508Z,23.74
2019-05-14T10:58:19.195Z,24.17
2019-05-14T11:00:49.527Z,24.17
2019-05-14T11:03:24.931Z,23.99
2019-05-14T11:05:58.768Z,24.17
2019-05-14T11:08:29.808Z,24.17
2019-05-14T11:11:03.623Z,24.69
2019-05-14T11:13:34.256Z,24.89
2019-05-14T11:16:05.194Z,24.80
2019-05-14T11:18:39.602Z,25.23
2019-05-14T11:21:19.813Z,25.19
2019-05-14T11:23:42.569Z,24.76
2019-05-14T11:26:13.157Z,24.46
2019-05-14T11:28:43.714Z,24.29
2019-05-14T11:31:13.869Z,24.54
2019-05-14T11:33:44.055Z,24.52
2019-05-14T11:36:15.668Z,24.38
2019-05-14T11:38:46.232Z,24.50
2019-05-14T11:41:18.609Z,24.44
2019-05-14T11:43:54.145Z,23.90
2019-05-14T11:46:39.915Z,23.97
2019-05-14T11:48:59.399Z,24.17
2019-05-14T11:51:58.983Z,24.44
2019-05-14T11:54:03.273Z,24.22
2019-05-14T11:56:33.840Z,24.16
2019-05-14T11:59:05.518Z,23.81
2019-05-14T12:01:39.257Z,25.02
2019-05-14T12:04:09.595Z,25.04
2019-05-14T12:06:41.025Z,24.94
2019-05-14T12:09:12.158Z,24.80
2019-05-14T12:11:42.477Z,24.77
2019-05-14T12:14:13.233Z,25.35
2019-05-14T12:16:43.403Z,25.58
2019-05-14T12:19:14.113Z,25.02
2019-05-14T12:21:58.929Z,25.28
2019-05-14T12:24:18.433Z,26.12
2019-05-14T12:26:49.682Z,26.16
2019-05-14T12:29:21.740Z,26.74
2019-05-14T12:31:51.919Z,27.02
2019-05-14T12:34:22.298Z,26.73
2019-05-14T12:36:52.461Z,27.10
2019-05-14T12:39:25.335Z,27.60
2019-05-14T12:41:58.063Z,27.57
2019-05-14T12:44:29.324Z,26.96
2019-05-14T12:46:59.559Z,27.74
2019-05-14T12:49:30.346Z,27.86
2019-05-14T12:52:17.861Z,27.63
2019-05-14T12:54:35.006Z,27.14
2019-05-14T12:57:07.109Z,27.66
2019-05-14T12:59:39.857Z,27.45
2019-05-14T13:02:10.897Z,27.75
2019-05-14T13:04:42.757Z,27.89
2019-05-14T13:07:13.989Z,27.97
2019-05-14T13:09:46.157Z,28.15
2019-05-14T13:12:18.773Z,28.34
2019-05-14T13:14:51.057Z,28.04
2019-05-14T13:17:21.248Z,28.59
2019-05-14T13:19:51.895Z,28.30
2019-05-14T13:22:38.206Z,28.19
2019-05-14T13:24:59.774Z,28.17
2019-05-14T13:27:31.212Z,28.44
2019-05-14T13:30:04.390Z,28.89
2019-05-14T13:32:34.758Z,28.87
2019-05-14T13:35:09.549Z,28.63
2019-05-14T13:37:39.842Z,28.08
2019-05-14T13:40:13.902Z,27.90
2019-05-14T13:42:48.968Z,27.54
2019-05-14T13:45:23.681Z,27.65
2019-05-14T13:47:53.828Z,28.26
2019-05-14T13:50:24.865Z,28.95
2019-05-14T13:53:02.688Z,29.07
2019-05-14T13:55:30.414Z,28.62
2019-05-14T13:58:00.016Z,28.30
2019-05-14T14:00:31.580Z,28.36
2019-05-14T14:03:02.014Z,28.30
2019-05-14T14:05:32.276Z,28.71
2019-05-14T14:08:02.781Z,29.55
2019-05-14T14:10:39.564Z,30.27
2019-05-14T14:13:11.361Z,30.75
2019-05-14T14:15:40.394Z,30.95
2019-05-14T14:18:11.145Z,30.67
2019-05-14T14:20:42.299Z,30.33
2019-05-14T14:23:21.840Z,31.34
2019-05-14T14:25:54.523Z,32.96
2019-05-14T14:28:20.708Z,34.64
2019-05-14T14:30:53.364Z,36.51
2019-05-14T14:33:23.937Z,37.28
2019-05-14T14:35:55.114Z,36.29
2019-05-14T14:38:29.174Z,35.53
2019-05-14T14:40:59.451Z,35.57
2019-05-14T14:43:29.766Z,35.86
2019-05-14T14:46:01.114Z,35.97
2019-05-14T14:48:32.510Z,35.48
2019-05-14T14:51:03.493Z,34.90
2019-05-14T14:53:51.288Z,36.03
2019-05-14T14:56:09.913Z,36.77
2019-05-14T14:58:40.776Z,37.58
2019-05-14T15:01:11.962Z,38.28
2019-05-14T15:03:44.188Z,39.12
2019-05-14T15:06:17.547Z,38.21
2019-05-14T15:08:49.654Z,39.40
2019-05-14T15:11:21.180Z,40.45
2019-05-14T15:13:51.781Z,41.15
2019-05-14T15:16:22.762Z,41.28
2019-05-14T15:18:52.990Z,40.11
2019-05-14T15:21:25.539Z,40.01
2019-05-14T15:24:07.022Z,38.23
2019-05-14T15:26:29.085Z,36.41
2019-05-14T15:29:02.260Z,34.75
2019-05-14T15:31:33.040Z,33.52
2019-05-14T15:34:03.254Z,31.86
2019-05-14T15:36:33.915Z,31.13
2019-05-14T15:39:06.240Z,30.05
2019-05-14T15:41:39.976Z,28.84
2019-05-14T15:44:10.250Z,28.55
2019-05-14T15:46:42.058Z,27.86
2019-05-14T15:49:12.840Z,27.15
2019-05-14T15:51:43.461Z,26.63
2019-05-14T15:54:35.241Z,26.38
2019-05-14T15:56:45.584Z,26.23
2019-05-14T15:59:15.784Z,25.99
2019-05-14T16:01:46.420Z,25.50
2019-05-14T16:04:16.584Z,25.07
2019-05-14T16:06:48.909Z,24.93
2019-05-14T16:09:19.432Z,24.65
2019-05-14T16:11:52.657Z,24.51
2019-05-14T16:14:23.273Z,24.34
2019-05-14T16:16:54.105Z,24.02
2019-05-14T16:19:25.379Z,23.81
2019-05-14T16:21:55.654Z,23.87
2019-05-14T16:24:28.566Z,23.85
2019-05-14T16:27:00.799Z,23.67
2019-05-14T16:29:44.275Z,23.52
2019-05-14T16:32:04.865Z,23.30
2019-05-14T16:34:40.730Z,23.28
2019-05-14T16:37:11.063Z,22.94
2019-05-14T16:39:41.086Z,22.96
2019-05-14T16:42:11.268Z,22.92
2019-05-14T16:44:41.848Z,22.99
2019-05-14T16:47:13.325Z,22.57
2019-05-14T16:49:43.489Z,22.62
2019-05-14T16:52:13.710Z,22.36
2019-05-14T16:54:44.383Z,22.55
2019-05-14T16:57:14.549Z,22.46
2019-05-14T16:59:49.591Z,22.49
2019-05-14T17:02:19.632Z,22.15
2019-05-14T17:04:50.705Z,21.87
2019-05-14T17:07:23.161Z,21.93
2019-05-14T17:09:55.075Z,22.04
2019-05-14T17:12:25.227Z,21.95
2019-05-14T17:14:58.622Z,22.04
2019-05-14T17:17:32.007Z,21.77
2019-05-14T17:20:02.934Z,21.88
2019-05-14T17:22:33.936Z,21.97
2019-05-14T17:25:04.825Z,21.89
2019-05-14T17:27:39.118Z,22.09
2019-05-14T17:30:10.163Z,21.79
2019-05-14T17:32:41.438Z,21.83
2019-05-14T17:35:12.325Z,21.67
2019-05-14T17:37:42.460Z,21.71
2019-05-14T17:40:14.147Z,21.67
2019-05-14T17:42:50.544Z,21.59
2019-05-14T17:45:22.310Z,21.63
2019-05-14T17:47:52.790Z,21.36
2019-05-14T17:50:23.015Z,20.99
2019-05-14T17:53:00.412Z,21.41
2019-05-14T17:55:43.571Z,21.25
2019-05-14T17:58:03.139Z,21.29
2019-05-14T18:00:34.278Z,21.05
2019-05-14T18:03:05.246Z,21.10
2019-05-14T18:05:37.812Z,21.07
2019-05-14T18:08:09.323Z,20.89
2019-05-14T18:10:41.282Z,20.87
2019-05-14T18:13:14.638Z,20.87
2019-05-14T18:15:44.847Z,20.76
2019-05-14T18:18:15.105Z,20.52
2019-05-14T18:20:45.264Z,20.68
2019-05-14T18:23:15.414Z,20.82
2019-05-14T18:26:01.051Z,20.84
2019-05-14T18:28:20.206Z,20.42
2019-05-14T18:30:50.518Z,20.39
2019-05-14T18:33:30.798Z,20.42
2019-05-14T18:35:59.218Z,20.42
2019-05-14T18:38:29.884Z,20.57
2019-05-14T18:41:01.457Z,20.49
2019-05-14T18:43:31.897Z,20.49
2019-05-14T18:46:04.454Z,20.56
2019-05-14T18:48:35.869Z,20.58
2019-05-14T18:51:08.687Z,20.59
2019-05-14T18:53:40.108Z,20.59
2019-05-14T18:56:20.360Z,20.37
2019-05-14T18:58:43.242Z,20.50
2019-05-14T19:01:13.555Z,20.46
2019-05-14T19:04:01.307Z,20.50
2019-05-14T19:06:31.522Z,20.35
2019-05-14T19:09:02.254Z,20.22
2019-05-14T19:11:34.209Z,20.26
2019-05-14T19:14:09.107Z,20.24
2019-05-14T19:16:40.439Z,20.37
2019-05-14T19:19:11.091Z,20.42
2019-05-14T19:21:41.369Z,20.28
2019-05-14T19:24:11.980Z,20.25
2019-05-14T19:26:43.697Z,19.83
2019-05-14T19:29:15.002Z,20.00
2019-05-14T19:31:45.271Z,20.05
2019-05-14T19:34:19.223Z,20.00
2019-05-14T19:36:49.634Z,20.06
2019-05-14T19:39:20.303Z,20.05
2019-05-14T19:41:51.467Z,19.91
2019-05-14T19:44:21.814Z,19.94
2019-05-14T19:46:51.825Z,19.91
2019-05-14T19:49:22.538Z,19.72
2019-05-14T19:51:53.776Z,19.76
2019-05-14T19:54:25.093Z,19.77
2019-05-14T19:57:01.106Z,19.64
2019-05-14T19:59:39.238Z,19.70
2019-05-14T20:02:10.330Z,19.71
2019-05-14T20:04:44.774Z,19.70
2019-05-14T20:07:15.115Z,19.59
2019-05-14T20:09:48.314Z,19.48
2019-05-14T20:12:21.892Z,19.52
2019-05-14T20:14:58.345Z,19.53
2019-05-14T20:17:30.131Z,19.47
2019-05-14T20:20:03.678Z,19.49
2019-05-14T20:22:59.205Z,19.40
2019-05-14T20:25:32.987Z,19.40
2019-05-14T20:28:03.139Z,19.32
2019-05-14T20:30:38.645Z,19.33
2019-05-14T20:33:11.773Z,19.34
2019-05-14T20:35:41.874Z,19.25
2019-05-14T20:38:14.519Z,19.24
2019-05-14T20:40:52.221Z,19.22
2019-05-14T20:43:38.452Z,19.28
2019-05-14T20:46:18.332Z,19.28
2019-05-14T20:48:47.957Z,19.21
2019-05-14T20:51:22.487Z,19.20
2019-05-14T20:53:55.251Z,19.21
2019-05-14T20:56:28.247Z,19.04
2019-05-14T20:58:59.548Z,19.17
2019-05-14T21:01:31.021Z,19.20
2019-05-14T21:04:01.804Z,19.09
2019-05-14T21:06:32.992Z,19.08
2019-05-14T21:09:04.473Z,19.12
2019-05-14T21:11:38.248Z,19.13
2019-05-14T21:14:09.901Z,19.08
2019-05-14T21:16:42.632Z,19.02
2019-05-14T21:19:28.362Z,19.00
2019-05-14T21:22:01.176Z,19.04
2019-05-14T21:24:31.485Z,18.93
2019-05-14T21:27:02.271Z,18.90
2019-05-14T21:29:33.403Z,18.90
2019-05-14T21:32:04.508Z,18.80
2019-05-14T21:34:34.868Z,18.77
2019-05-14T21:37:08.829Z,18.74
2019-05-14T21:39:41.060Z,18.79
2019-05-14T21:42:10.969Z,18.61
2019-05-14T21:44:41.354Z,18.63
2019-05-14T21:49:56.384Z,18.51
2019-05-14T21:52:31.811Z,18.55
2019-05-14T21:55:03.658Z,18.51
2019-05-14T21:57:38.259Z,18.47
2019-05-14T22:00:14.874Z,18.36
2019-05-14T22:02:49.123Z,18.36
2019-05-14T22:05:20.155Z,18.22
2019-05-14T22:07:51.402Z,18.07
2019-05-14T22:10:22.634Z,18.13
2019-05-14T22:12:54.330Z,18.16
2019-05-14T22:15:25.454Z,18.15
2019-05-14T22:17:58.534Z,17.98
2019-05-14T22:20:29.127Z,17.96
2019-05-14T22:22:59.536Z,17.97
2019-05-14T22:25:30.032Z,17.94
2019-05-14T22:28:11.438Z,17.94
2019-05-14T22:30:33.206Z,17.86
2019-05-14T22:33:04.519Z,17.84
2019-05-14T22:35:35.294Z,17.63
2019-05-14T22:38:08.043Z,17.75
2019-05-14T22:40:39.084Z,17.77
2019-05-14T22:43:11.590Z,17.67
2019-05-14T22:45:41.790Z,17.55
2019-05-14T22:48:12.408Z,17.56
2019-05-14T22:50:43.103Z,17.58
2019-05-14T22:53:15.987Z,17.52
2019-05-14T22:55:46.209Z,17.52
2019-05-14T22:58:25.565Z,17.49
2019-05-14T23:01:02.211Z,17.40
2019-05-14T23:03:24.265Z,17.35
2019-05-14T23:05:54.433Z,17.39
2019-05-14T23:08:25.756Z,17.29
2019-05-14T23:10:55.906Z,17.23
2019-05-14T23:13:28.238Z,17.22
2019-05-14T23:16:00.858Z,17.22
2019-05-14T23:18:33.764Z,17.18
2019-05-14T23:21:03.928Z,17.08
2019-05-14T23:23:34.696Z,17.07
2019-05-14T23:26:05.651Z,17.05
2019-05-14T23:28:44.586Z,16.94
2019-05-14T23:31:12.265Z,16.99
2019-05-14T23:33:43.934Z,16.94
2019-05-14T23:36:18.286Z,16.87
2019-05-14T23:38:50.645Z,16.93
2019-05-14T23:41:23.498Z,16.86
2019-05-14T23:43:54.293Z,16.80
2019-05-14T23:46:24.579Z,16.73
2019-05-14T23:48:56.474Z,16.68
2019-05-14T23:51:28.994Z,16.72
2019-05-14T23:53:58.962Z,16.63
2019-05-14T23:56:29.718Z,16.51
2019-05-14T23:59:02.067Z,16.58
